createdAt,value
2023-03-13T00:02:20.749Z,11.73
2023-03-13T00:04:47.489Z,11.20
2023-03-13T00:07:14.542Z,11.07
2023-03-13T00:09:41.289Z,10.48
2023-03-13T00:12:08.145Z,10.88
2023-03-13T00:14:34.790Z,10.85
2023-03-13T00:17:03.103Z,11.77
2023-03-13T00:19:29.956Z,11.23
2023-03-13T00:21:56.629Z,12.35
2023-03-13T00:24:23.321Z,12.25
2023-03-13T00:26:50.012Z,15.23
2023-03-13T00:29:16.654Z,11.63
2023-03-13T00:31:43.457Z,9.85
2023-03-13T00:34:10.652Z,13.30
2023-03-13T00:36:37.812Z,13.30
2023-03-13T00:39:07.366Z,11.35
2023-03-13T00:41:34.421Z,11.45
2023-03-13T00:44:01.242Z,11.82
2023-03-13T00:46:30.305Z,11.25
2023-03-13T00:48:57.914Z,12.85
2023-03-13T00:51:27.101Z,12.30
2023-03-13T00:53:55.195Z,14.68
2023-03-13T00:56:22.594Z,13.38
2023-03-13T00:58:50.430Z,15.98
2023-03-13T01:01:26.529Z,13.57
2023-03-13T01:03:56.013Z,13.52
2023-03-13T01:06:26.528Z,16.75
2023-03-13T01:08:53.929Z,16.98
2023-03-13T01:11:23.505Z,15.40
2023-03-13T01:13:53.605Z,13.45
2023-03-13T01:16:22.120Z,14.85
2023-03-13T01:18:52.430Z,12.75
2023-03-13T01:21:20.452Z,13.15
2023-03-13T01:23:48.725Z,14.10
2023-03-13T01:26:15.927Z,12.70
2023-03-13T01:28:43.124Z,14.73
2023-03-13T01:31:19.266Z,11.85
2023-03-13T01:33:47.448Z,12.02
2023-03-13T01:36:15.207Z,12.18
2023-03-13T01:38:42.310Z,12.35
2023-03-13T01:41:11.840Z,10.50
2023-03-13T01:43:38.647Z,11.95
2023-03-13T01:46:19.371Z,12.07
2023-03-13T01:48:52.107Z,15.57
2023-03-13T01:51:33.974Z,14.05
2023-03-13T01:54:04.211Z,12.20
2023-03-13T01:57:00.357Z,12.75
2023-03-13T01:59:31.768Z,14.07
2023-03-13T02:02:01.549Z,17.25
2023-03-13T02:04:31.884Z,13.90
2023-03-13T02:07:03.865Z,15.40
2023-03-13T02:09:32.945Z,17.17
2023-03-13T02:12:22.840Z,16.00
2023-03-13T02:14:51.636Z,13.23
2023-03-13T02:17:18.626Z,11.65
2023-03-13T02:19:48.508Z,15.80
2023-03-13T02:22:21.353Z,11.90
2023-03-13T02:25:11.050Z,13.50
2023-03-13T02:27:37.902Z,14.13
2023-03-13T02:30:05.648Z,11.65
2023-03-13T02:32:32.681Z,10.73
2023-03-13T02:35:06.614Z,10.48
2023-03-13T02:37:33.702Z,9.25
2023-03-13T02:40:06.167Z,13.68
2023-03-13T02:42:32.946Z,9.98
2023-03-13T02:44:59.700Z,10.13
2023-03-13T02:47:26.520Z,10.10
2023-03-13T02:49:53.201Z,8.57
2023-03-13T02:52:38.963Z,8.93
2023-03-13T02:55:11.087Z,9.27
2023-03-13T02:57:37.812Z,10.25
2023-03-13T03:00:07.302Z,9.30
2023-03-13T03:02:33.996Z,9.68
2023-03-13T03:05:00.709Z,8.93
2023-03-13T03:07:27.455Z,11.00
2023-03-13T03:09:54.120Z,10.50
2023-03-13T03:12:20.841Z,9.38
2023-03-13T03:14:47.692Z,8.98
2023-03-13T03:17:14.518Z,9.48
2023-03-13T03:19:41.268Z,7.88
2023-03-13T03:22:08.092Z,6.95
2023-03-13T03:24:34.776Z,7.75
2023-03-13T03:27:01.457Z,9.93
2023-03-13T03:29:28.226Z,6.47
2023-03-13T03:31:55.270Z,9.02
2023-03-13T03:34:22.906Z,8.23
2023-03-13T03:36:49.675Z,8.07
2023-03-13T03:39:16.479Z,6.68
2023-03-13T03:41:43.166Z,6.80
2023-03-13T03:44:09.917Z,5.82
2023-03-13T03:46:36.581Z,5.63
2023-03-13T03:49:03.315Z,5.47
2023-03-13T03:51:30.037Z,6.90
2023-03-13T03:53:56.804Z,6.68
2023-03-13T03:56:23.590Z,6.70
2023-03-13T03:58:50.356Z,5.28
2023-03-13T04:01:17.078Z,5.35
2023-03-13T04:03:43.887Z,5.38
2023-03-13T04:06:10.697Z,6.40
2023-03-13T04:08:37.362Z,5.88
2023-03-13T04:11:04.132Z,7.10
2023-03-13T04:13:30.862Z,6.60
2023-03-13T04:15:57.566Z,6.22
2023-03-13T04:18:24.308Z,4.88
2023-03-13T04:20:51.053Z,5.55
2023-03-13T04:23:17.758Z,6.10
2023-03-13T04:25:44.498Z,5.90
2023-03-13T04:28:11.189Z,4.80
2023-03-13T04:30:37.893Z,6.65
2023-03-13T04:33:04.760Z,6.32
2023-03-13T04:35:32.391Z,5.53
2023-03-13T04:38:01.235Z,4.50
2023-03-13T04:40:28.135Z,9.27
2023-03-13T04:42:54.845Z,7.70
2023-03-13T04:45:21.573Z,8.95
2023-03-13T04:47:48.242Z,7.68
2023-03-13T04:50:15.291Z,5.70
2023-03-13T04:52:41.938Z,7.53
2023-03-13T04:55:09.500Z,5.55
2023-03-13T04:57:36.208Z,4.97
2023-03-13T05:00:05.450Z,5.25
2023-03-13T05:02:32.120Z,7.05
2023-03-13T05:04:58.894Z,5.72
2023-03-13T05:07:25.656Z,7.07
2023-03-13T05:09:52.381Z,4.43
2023-03-13T05:12:19.124Z,4.45
2023-03-13T05:14:45.805Z,3.35
2023-03-13T05:17:14.545Z,3.80
2023-03-13T05:19:41.249Z,2.90
2023-03-13T05:22:07.928Z,4.72
2023-03-13T05:24:34.649Z,3.17
2023-03-13T05:27:02.682Z,3.30
2023-03-13T05:29:29.379Z,4.95
2023-03-13T05:31:56.175Z,2.95
2023-03-13T05:34:22.974Z,3.95
2023-03-13T05:36:49.864Z,3.85
2023-03-13T05:39:16.700Z,2.88
2023-03-13T05:41:43.393Z,2.95
2023-03-13T05:44:10.109Z,3.20
2023-03-13T05:46:36.838Z,4.60
2023-03-13T05:49:03.641Z,4.18
2023-03-13T05:51:30.343Z,3.58
2023-03-13T05:53:57.056Z,4.68
2023-03-13T05:56:23.825Z,3.00
2023-03-13T05:58:50.561Z,2.70
2023-03-13T06:01:17.283Z,3.50
2023-03-13T06:03:44.144Z,3.63
2023-03-13T06:06:10.974Z,3.00
2023-03-13T06:08:37.693Z,2.95
2023-03-13T06:11:04.611Z,3.22
2023-03-13T06:13:31.347Z,3.42
2023-03-13T06:15:58.532Z,4.65
2023-03-13T06:18:25.678Z,3.72
2023-03-13T06:20:58.758Z,2.45
2023-03-13T06:23:25.931Z,4.60
2023-03-13T06:25:53.090Z,2.28
2023-03-13T06:28:19.792Z,4.72
2023-03-13T06:30:46.902Z,3.92
2023-03-13T06:33:13.645Z,3.90
2023-03-13T06:35:55.106Z,2.83
2023-03-13T06:38:24.876Z,3.15
2023-03-13T06:40:51.709Z,2.65
2023-03-13T06:43:18.973Z,2.95
2023-03-13T06:45:45.992Z,4.05
2023-03-13T06:48:12.732Z,3.53
2023-03-13T06:50:40.416Z,4.78
2023-03-13T06:53:07.286Z,5.93
2023-03-13T06:55:34.255Z,5.00
2023-03-13T06:58:01.030Z,7.28
2023-03-13T07:00:27.984Z,5.30
2023-03-13T07:02:54.727Z,3.28
2023-03-13T07:05:21.462Z,5.13
2023-03-13T07:07:48.206Z,4.18
2023-03-13T07:10:14.916Z,5.72
2023-03-13T07:12:41.654Z,3.80
2023-03-13T07:15:08.691Z,6.60
2023-03-13T07:17:35.605Z,3.70
2023-03-13T07:20:03.231Z,3.67
2023-03-13T07:22:30.037Z,4.40
2023-03-13T07:24:56.736Z,4.57
2023-03-13T07:27:23.723Z,3.72
2023-03-13T07:29:50.442Z,3.88
2023-03-13T07:32:17.232Z,2.88
2023-03-13T07:34:46.708Z,2.92
2023-03-13T07:37:14.429Z,4.10
2023-03-13T07:39:42.927Z,5.45
2023-03-13T07:42:13.540Z,3.70
2023-03-13T07:44:40.283Z,3.65
2023-03-13T07:47:07.026Z,4.60
2023-03-13T07:49:34.023Z,6.38
2023-03-13T07:52:00.717Z,3.38
2023-03-13T07:54:27.464Z,7.05
2023-03-13T07:56:54.193Z,6.43
2023-03-13T07:59:20.880Z,4.80
2023-03-13T08:01:47.611Z,7.25
2023-03-13T08:04:14.729Z,4.95
2023-03-13T08:06:42.303Z,7.45
2023-03-13T08:09:09.907Z,7.47
2023-03-13T08:11:44.703Z,5.30
2023-03-13T08:14:11.437Z,6.00
2023-03-13T08:16:38.690Z,4.93
2023-03-13T08:19:06.282Z,5.57
2023-03-13T08:21:35.864Z,7.90
2023-03-13T08:24:07.712Z,6.47
2023-03-13T08:26:36.492Z,5.82
2023-03-13T08:29:10.051Z,6.75
2023-03-13T08:31:48.067Z,8.75
2023-03-13T08:34:16.558Z,6.30
2023-03-13T08:36:43.640Z,5.47
2023-03-13T08:39:13.850Z,5.85
2023-03-13T08:41:43.306Z,8.05
2023-03-13T08:44:20.630Z,6.78
2023-03-13T08:46:49.413Z,6.80
2023-03-13T08:49:17.764Z,5.95
2023-03-13T08:51:44.681Z,3.92
2023-03-13T08:54:11.480Z,5.60
2023-03-13T08:56:38.543Z,5.25
2023-03-13T08:59:06.118Z,4.88
2023-03-13T09:01:34.821Z,8.38
2023-03-13T09:04:04.510Z,6.78
2023-03-13T09:06:36.157Z,6.90
2023-03-13T09:09:04.282Z,6.72
2023-03-13T09:11:33.333Z,4.15
2023-03-13T09:14:00.074Z,7.47
2023-03-13T09:16:29.727Z,8.25
2023-03-13T09:18:57.407Z,8.02
2023-03-13T09:21:27.130Z,5.32
2023-03-13T09:23:54.082Z,9.05
2023-03-13T09:26:23.130Z,7.72
2023-03-13T09:28:51.445Z,5.60
2023-03-13T09:31:30.473Z,6.85
2023-03-13T09:33:57.616Z,11.32
2023-03-13T09:36:25.122Z,9.52
2023-03-13T09:38:53.401Z,9.63
2023-03-13T09:41:53.367Z,10.63
2023-03-13T09:44:23.302Z,9.48
2023-03-13T09:47:04.310Z,6.68
2023-03-13T09:49:42.634Z,5.72
2023-03-13T09:52:17.203Z,5.45
2023-03-13T09:55:02.600Z,7.18
2023-03-13T09:57:36.401Z,7.50
2023-03-13T10:00:14.295Z,5.70
2023-03-13T10:02:47.763Z,6.55
2023-03-13T10:05:17.886Z,6.47
2023-03-13T10:07:44.937Z,11.20
2023-03-13T10:10:22.115Z,4.78
2023-03-13T10:12:52.751Z,6.03
2023-03-13T10:15:27.641Z,5.32
2023-03-13T10:17:54.775Z,5.32
2023-03-13T10:20:26.238Z,3.08
2023-03-13T10:22:59.783Z,5.28
2023-03-13T10:25:35.679Z,4.18
2023-03-13T10:28:02.595Z,6.43
2023-03-13T10:30:32.547Z,4.75
2023-03-13T10:33:20.928Z,8.45
2023-03-13T10:36:01.201Z,4.47
2023-03-13T10:38:28.013Z,3.50
2023-03-13T10:40:59.741Z,3.83
2023-03-13T10:43:27.913Z,4.75
2023-03-13T10:45:55.187Z,3.28
2023-03-13T10:48:24.706Z,3.63
2023-03-13T10:50:54.558Z,3.20
2023-03-13T10:53:39.168Z,2.65
2023-03-13T10:56:35.067Z,4.07
2023-03-13T10:59:01.958Z,5.80
2023-03-13T11:01:34.070Z,3.60
2023-03-13T11:04:19.987Z,3.78
2023-03-13T11:07:04.086Z,4.50
2023-03-13T11:09:31.461Z,3.83
2023-03-13T11:12:05.804Z,4.70
2023-03-13T11:14:32.680Z,5.72
2023-03-13T11:17:38.997Z,5.55
2023-03-13T11:20:08.825Z,5.25
2023-03-13T11:22:35.540Z,7.82
2023-03-13T11:25:23.856Z,5.35
2023-03-13T11:28:33.320Z,4.03
2023-03-13T11:31:08.372Z,7.15
2023-03-13T11:33:47.523Z,8.05
2023-03-13T11:36:17.061Z,7.60
2023-03-13T11:38:49.848Z,8.13
2023-03-13T11:41:32.475Z,5.88
2023-03-13T11:44:14.359Z,8.73
2023-03-13T11:46:54.791Z,7.68
2023-03-13T11:49:46.280Z,3.78
2023-03-13T11:52:26.223Z,3.30
2023-03-13T11:55:09.539Z,7.55
2023-03-13T11:57:42.307Z,7.82
2023-03-13T12:00:25.005Z,7.28
2023-03-13T12:03:30.753Z,6.57
2023-03-13T12:06:00.369Z,8.43
2023-03-13T12:08:39.174Z,12.02
2023-03-13T12:11:29.288Z,10.20
2023-03-13T12:14:08.524Z,12.52
2023-03-13T12:17:03.178Z,13.18
2023-03-13T12:20:15.795Z,15.88
2023-03-13T12:23:08.792Z,8.38
2023-03-13T12:25:48.189Z,10.48
2023-03-13T12:28:27.198Z,15.27
2023-03-13T12:31:18.447Z,15.52
2023-03-13T12:34:10.924Z,8.75
2023-03-13T12:37:06.999Z,5.78
2023-03-13T12:39:51.333Z,11.68
2023-03-13T12:42:30.271Z,7.10
2023-03-13T12:44:59.151Z,9.68
2023-03-13T12:48:04.399Z,15.45
2023-03-13T12:50:36.793Z,11.68
2023-03-13T12:53:31.398Z,17.10
2023-03-13T12:56:41.537Z,11.25
2023-03-13T12:59:47.556Z,8.07
2023-03-13T13:02:21.528Z,13.80
2023-03-13T13:04:51.097Z,12.93
2023-03-13T13:07:28.456Z,9.40
2023-03-13T13:10:09.749Z,15.45
2023-03-13T13:12:38.734Z,10.40
2023-03-13T13:15:17.829Z,11.15
2023-03-13T13:18:27.638Z,9.95
2023-03-13T13:21:05.052Z,11.63
2023-03-13T13:23:37.035Z,9.38
2023-03-13T13:26:29.878Z,14.65
2023-03-13T13:29:01.707Z,11.87
2023-03-13T13:31:51.271Z,13.45
2023-03-13T13:34:36.196Z,11.13
2023-03-13T13:37:11.988Z,12.75
2023-03-13T13:39:50.326Z,7.50
2023-03-13T13:42:43.995Z,14.40
2023-03-13T13:45:16.777Z,14.95
2023-03-13T13:47:49.615Z,19.83
2023-03-13T13:50:21.058Z,19.55
2023-03-13T13:52:49.051Z,11.63
2023-03-13T13:55:34.417Z,16.27
2023-03-13T13:58:14.309Z,13.73
2023-03-13T14:01:11.376Z,14.82
2023-03-13T14:03:43.354Z,15.60
2023-03-13T14:06:17.419Z,16.92
2023-03-13T14:08:47.057Z,14.60
2023-03-13T14:11:36.870Z,24.45
2023-03-13T14:14:10.971Z,29.58
2023-03-13T14:16:39.172Z,15.63
2023-03-13T14:19:05.999Z,22.10
2023-03-13T14:21:33.438Z,24.30
2023-03-13T14:24:00.224Z,20.95
2023-03-13T14:26:29.320Z,14.98
2023-03-13T14:29:07.397Z,21.73
2023-03-13T14:31:37.029Z,23.17
2023-03-13T14:34:06.646Z,20.08
2023-03-13T14:36:50.844Z,16.77
2023-03-13T14:39:42.676Z,30.15
2023-03-13T14:42:13.273Z,26.08
2023-03-13T14:44:43.022Z,18.23
2023-03-13T14:47:26.992Z,16.40
2023-03-13T14:50:26.438Z,17.92
2023-03-13T14:52:58.380Z,20.77
2023-03-13T14:55:24.995Z,26.00
2023-03-13T14:58:20.999Z,20.85
2023-03-13T15:00:49.062Z,28.88
2023-03-13T15:03:25.768Z,20.40
2023-03-13T15:06:17.653Z,18.85
2023-03-13T15:08:51.746Z,28.77
2023-03-13T15:11:27.530Z,19.60
2023-03-13T15:13:55.108Z,18.08
2023-03-13T15:16:23.293Z,21.35
2023-03-13T15:18:51.499Z,27.05
2023-03-13T15:21:30.387Z,19.98
2023-03-13T15:24:01.503Z,21.52
2023-03-13T15:26:29.072Z,21.60
2023-03-13T15:28:55.819Z,16.48
2023-03-13T15:31:28.005Z,25.05
2023-03-13T15:34:00.264Z,20.40
2023-03-13T15:36:28.929Z,23.27
2023-03-13T15:38:55.939Z,24.67
2023-03-13T15:41:23.422Z,22.95
2023-03-13T15:43:55.413Z,22.55
2023-03-13T15:46:23.459Z,19.60
2023-03-13T15:48:51.581Z,27.20
2023-03-13T15:51:18.565Z,26.70
2023-03-13T15:53:46.454Z,28.65
2023-03-13T15:56:22.985Z,32.65
2023-03-13T15:58:51.302Z,29.38
2023-03-13T16:01:19.133Z,28.90
2023-03-13T16:03:46.529Z,26.13
2023-03-13T16:06:17.892Z,26.40
2023-03-13T16:08:45.425Z,31.10
2023-03-13T16:11:15.018Z,20.50
2023-03-13T16:13:42.276Z,21.00
2023-03-13T16:16:18.942Z,18.55
2023-03-13T16:18:45.617Z,22.65
2023-03-13T16:21:22.228Z,23.10
2023-03-13T16:23:49.298Z,22.98
2023-03-13T16:26:21.861Z,16.73
2023-03-13T16:28:49.114Z,19.45
2023-03-13T16:31:23.552Z,15.73
2023-03-13T16:33:53.868Z,18.65
2023-03-13T16:36:28.230Z,25.10
2023-03-13T16:38:55.135Z,20.63
2023-03-13T16:41:27.701Z,28.70
2023-03-13T16:43:55.595Z,25.30
2023-03-13T16:46:32.878Z,20.88
2023-03-13T16:48:59.889Z,29.25
2023-03-13T16:51:28.263Z,19.60
2023-03-13T16:53:57.662Z,16.70
2023-03-13T16:56:30.533Z,20.98
2023-03-13T16:58:58.539Z,19.17
2023-03-13T17:01:26.250Z,20.38
2023-03-13T17:03:53.644Z,19.73
2023-03-13T17:06:33.127Z,19.65
2023-03-13T17:09:04.056Z,16.23
2023-03-13T17:11:33.619Z,21.90
2023-03-13T17:14:00.528Z,23.38
2023-03-13T17:16:33.540Z,20.88
2023-03-13T17:19:01.654Z,26.63
2023-03-13T17:21:32.004Z,21.65
2023-03-13T17:24:00.778Z,12.50
2023-03-13T17:26:40.441Z,23.02
2023-03-13T17:29:08.608Z,13.88
2023-03-13T17:31:38.673Z,17.85
2023-03-13T17:34:06.894Z,24.65
2023-03-13T17:36:34.966Z,22.60
2023-03-13T17:39:05.515Z,18.85
2023-03-13T17:41:34.882Z,15.05
2023-03-13T17:44:03.727Z,15.57
2023-03-13T17:46:42.337Z,14.82
2023-03-13T17:49:12.469Z,18.40
2023-03-13T17:51:41.723Z,16.33
2023-03-13T17:54:09.363Z,20.23
2023-03-13T17:56:39.562Z,20.10
2023-03-13T17:59:14.834Z,20.33
2023-03-13T18:01:42.532Z,17.88
2023-03-13T18:04:10.580Z,19.30
2023-03-13T18:06:40.614Z,19.05
2023-03-13T18:09:12.465Z,23.65
2023-03-13T18:11:40.028Z,19.40
2023-03-13T18:14:09.560Z,29.40
2023-03-13T18:16:54.508Z,23.08
2023-03-13T18:19:26.054Z,20.02
2023-03-13T18:21:56.131Z,19.75
2023-03-13T18:24:23.071Z,27.83
2023-03-13T18:26:50.384Z,21.40
2023-03-13T18:29:26.906Z,25.08
2023-03-13T18:31:55.457Z,21.45
2023-03-13T18:34:23.758Z,19.42
2023-03-13T18:36:52.254Z,32.88
2023-03-13T18:39:20.368Z,30.13
2023-03-13T18:41:49.018Z,26.02
2023-03-13T18:44:21.463Z,33.03
2023-03-13T18:46:49.324Z,34.25
2023-03-13T18:49:22.474Z,33.25
2023-03-13T18:51:51.011Z,28.30
2023-03-13T18:54:18.268Z,36.35
2023-03-13T18:56:47.624Z,22.50
2023-03-13T18:59:20.786Z,17.35
2023-03-13T19:04:16.001Z,14.55
2023-03-13T19:06:43.700Z,25.50
2023-03-13T19:09:41.571Z,29.40
2023-03-13T19:12:04.594Z,25.27
2023-03-13T19:14:31.386Z,23.27
2023-03-13T19:16:58.467Z,27.00
2023-03-13T19:19:26.391Z,22.88
2023-03-13T19:21:56.902Z,25.20
2023-03-13T19:24:26.791Z,26.60
2023-03-13T19:26:59.032Z,30.15
2023-03-13T19:29:28.200Z,30.70
2023-03-13T19:31:55.222Z,28.00
2023-03-13T19:34:22.357Z,24.83
2023-03-13T19:36:50.211Z,21.50
2023-03-13T19:39:25.541Z,25.75
2023-03-13T19:41:53.285Z,21.73
2023-03-13T19:44:20.884Z,21.75
2023-03-13T19:46:48.355Z,23.35
2023-03-13T19:49:17.767Z,17.70
2023-03-13T19:51:45.065Z,18.58
2023-03-13T19:54:12.349Z,21.80
2023-03-13T19:56:41.539Z,25.00
2023-03-13T19:59:17.788Z,21.50
2023-03-13T20:01:44.959Z,27.20
2023-03-13T20:04:12.292Z,17.00
2023-03-13T20:06:40.268Z,15.10
2023-03-13T20:09:10.252Z,18.17
2023-03-13T20:11:37.439Z,21.88
2023-03-13T20:14:05.211Z,22.65
2023-03-13T20:16:33.714Z,25.10
2023-03-13T20:19:02.550Z,18.15
2023-03-13T20:21:31.874Z,19.15
2023-03-13T20:23:59.549Z,24.77
2023-03-13T20:26:27.797Z,21.63
2023-03-13T20:28:55.367Z,17.80
2023-03-13T20:31:25.341Z,25.20
2023-03-13T20:33:52.148Z,18.42
2023-03-13T20:36:20.538Z,26.67
2023-03-13T20:38:47.738Z,13.55
2023-03-13T20:41:16.289Z,18.13
2023-03-13T20:43:43.604Z,21.13
2023-03-13T20:46:10.357Z,17.92
2023-03-13T20:48:39.443Z,11.82
2023-03-13T20:51:08.098Z,18.40
2023-03-13T20:53:39.106Z,14.63
2023-03-13T20:56:07.529Z,16.52
2023-03-13T20:58:35.436Z,21.05
2023-03-13T21:01:03.991Z,14.73
2023-03-13T21:03:35.509Z,11.88
2023-03-13T21:06:13.327Z,14.63
2023-03-13T21:08:40.293Z,14.43
2023-03-13T21:11:19.579Z,15.65
2023-03-13T21:13:46.497Z,16.10
2023-03-13T21:16:14.007Z,16.08
2023-03-13T21:18:41.201Z,18.90
2023-03-13T21:21:10.617Z,17.63
2023-03-13T21:23:39.117Z,14.00
2023-03-13T21:26:06.378Z,13.45
2023-03-13T21:28:33.267Z,17.17
2023-03-13T21:31:08.896Z,20.00
2023-03-13T21:33:35.748Z,15.32
2023-03-13T21:36:02.498Z,17.48
2023-03-13T21:38:29.304Z,13.68
2023-03-13T21:40:56.024Z,16.65
2023-03-13T21:43:23.888Z,16.40
2023-03-13T21:45:50.616Z,15.52
2023-03-13T21:48:17.276Z,19.83
2023-03-13T21:50:44.160Z,13.20
2023-03-13T21:53:10.821Z,13.15
2023-03-13T21:55:40.005Z,16.50
2023-03-13T21:58:06.666Z,18.63
2023-03-13T22:00:34.031Z,14.00
2023-03-13T22:03:00.861Z,13.63
2023-03-13T22:05:27.569Z,12.85
2023-03-13T22:07:55.689Z,16.33
2023-03-13T22:10:22.650Z,13.27
2023-03-13T22:12:49.321Z,15.93
2023-03-13T22:15:15.999Z,12.13
2023-03-13T22:17:42.750Z,10.00
2023-03-13T22:20:10.443Z,13.32
2023-03-13T22:22:37.134Z,11.43
2023-03-13T22:25:04.009Z,14.13
2023-03-13T22:27:30.667Z,16.65
2023-03-13T22:29:57.931Z,12.48
2023-03-13T22:32:25.956Z,15.48
2023-03-13T22:34:52.720Z,10.68
2023-03-13T22:37:21.895Z,10.57
2023-03-13T22:39:50.133Z,15.07
2023-03-13T22:42:16.923Z,12.15
2023-03-13T22:44:43.616Z,17.50
2023-03-13T22:47:10.327Z,10.57
2023-03-13T22:49:37.186Z,9.85
2023-03-13T22:52:04.166Z,10.02
2023-03-13T22:54:30.977Z,17.08
2023-03-13T22:56:57.641Z,10.55
2023-03-13T22:59:24.743Z,15.27
2023-03-13T23:01:51.475Z,14.88
2023-03-13T23:04:18.124Z,13.77
2023-03-13T23:06:44.851Z,13.98
2023-03-13T23:09:11.686Z,9.02
2023-03-13T23:11:38.533Z,8.63
2023-03-13T23:14:05.231Z,9.52
2023-03-13T23:16:32.129Z,11.02
2023-03-13T23:19:05.974Z,12.15
2023-03-13T23:21:32.726Z,10.55
2023-03-13T23:23:59.770Z,11.60
2023-03-13T23:26:26.474Z,13.10
2023-03-13T23:28:53.121Z,12.68
2023-03-13T23:31:21.768Z,9.38
2023-03-13T23:33:49.345Z,12.98
2023-03-13T23:36:19.990Z,11.68
2023-03-13T23:38:52.257Z,10.05
2023-03-13T23:41:20.826Z,12.10
2023-03-13T23:43:47.746Z,11.43
2023-03-13T23:46:19.398Z,15.27
2023-03-13T23:48:46.185Z,9.90
2023-03-13T23:51:12.956Z,14.55
2023-03-13T23:53:41.667Z,10.15
2023-03-13T23:56:09.043Z,8.70
2023-03-13T23:58:35.878Z,9.60
